Iberica Hav — C6YI3 — position and weather

sailwx.info

Track history (hours):
 
Tides and Currents Weather Stations Pressure Air Temp Water Temp Dewpoint Dewpoint Depression Visibility Wind Speed Wind Dir Waves Ship Positions

Iberica Hav

Last reported at 2014-Aug-21 01:15 UTC. Time now 2014-Aug-22 04:00 UTC.
Position N 55°28' E 014°50'.

Length 88 m; draft 3.6 m.

Type: Cargo ship. MMSI: 311034400.

Date/timePositionNaut miles runAvg speedWind from/ knotsBaromVisibWave heightAir tempDewpointWater temp
2014-Aug-21 01:15N 55°28' E 014°50'9 7.9
2014-Aug-21 00:07N 55°23' E 014°37'4 7.9
2014-Aug-20 23:33N 55°19' E 014°32'89 8.1
2014-Aug-20 12:33N 54°33' E 012°20'9 9.3
2014-Aug-20 11:33N 54°25' E 012°11'8 7.1
2014-Aug-20 10:28N 54°19' E 012°04'7 7.6
2014-Aug-20 09:33N 54°12' E 012°05'3 3.0
2014-Aug-20 08:32N 54°09' E 012°06'0 0.0
2014-Aug-20 06:31N 54°09' E 012°06'0 0.0
2014-Aug-20 05:31N 54°09' E 012°06'0 0.0
2014-Aug-20 04:18N 54°09' E 012°06'0 0.0
2014-Aug-20 03:30N 54°09' E 012°06'0 0.0
2014-Aug-20 01:32N 54°09' E 012°06'0 0.0
2014-Aug-20 00:32N 54°09' E 012°06'0 0.0
2014-Aug-19 23:22N 54°09' E 012°06'0 0.0
2014-Aug-19 22:28N 54°09' E 012°06'0 0.0
2014-Aug-19 21:31N 54°09' E 012°06'0 0.0
2014-Aug-19 20:09N 54°09' E 012°06'0 0.0
2014-Aug-19 19:18N 54°09' E 012°06'0 0.0
2014-Aug-19 18:32N 54°09' E 012°06'0 0.0
2014-Aug-19 16:10N 54°09' E 012°06'0 0.0
2014-Aug-19 15:25N 54°09' E 012°06'0 0.0
2014-Aug-19 14:27N 54°09' E 012°06'1 0.7
2014-Aug-19 13:34N 54°10' E 012°06'8 8.0
2014-Aug-19 12:31N 54°18' E 012°02'8 8.7
2014-Aug-19 11:33N 54°25' E 012°09'19 7.6
2014-Aug-19 09:03N 54°38' E 012°33'6 8.3
2014-Aug-19 08:17N 54°40' E 012°43'6 8.0
2014-Aug-19 07:29N 54°41' E 012°54'7 7.7
2014-Aug-19 06:33N 54°42' E 013°06'7 7.3
2014-Aug-19 05:33N 54°43' E 013°19'8 8.5
2014-Aug-19 04:33N 54°41' E 013°33'9 9.4
2014-Aug-19 03:33N 54°35' E 013°45'9 9.3
2014-Aug-19 02:33N 54°27' E 013°53'10 9.2
2014-Aug-19 01:32N 54°19' E 014°01'12 9.1
2014-Aug-19 00:15N 54°08' E 014°10'7 9.6
2014-Aug-18 23:33N 54°02' E 014°13'8 8.3
2014-Aug-18 22:33N 53°54' E 014°15'8 7.5
2014-Aug-18 21:33N 53°47' E 014°22'10 9.6
2014-Aug-18 20:33N 53°40' E 014°32'10 9.1
2014-Aug-18 19:29N 53°31' E 014°38'  
2014-Aug-15 04:33N 53°27' E 014°36'10 8.0
2014-Aug-15 03:22N 53°36' E 014°35'7 9.0
2014-Aug-15 02:33N 53°42' E 014°28'9 9.0
2014-Aug-15 01:32N 53°50' E 014°19'7 7.0
2014-Aug-15 00:33N 53°56' E 014°16'5 4.6
2014-Aug-14 23:33N 54°01' E 014°14'9 6.9
2014-Aug-14 22:11N 54°10' E 014°10'4 6.9
2014-Aug-14 21:33N 54°13' E 014°05'7 6.9
2014-Aug-14 20:33N 54°19' E 013°59'7 6.8
2014-Aug-14 19:29N 54°25' E 013°52'6 7.0
2014-Aug-14 18:33N 54°31' E 013°47'7 6.9
2014-Aug-14 17:33N 54°37' E 013°41'7 7.0
2014-Aug-14 16:33N 54°43' E 013°35'42 6.7
2014-Aug-14 10:14N 55°12' E 012°41'5 6.8
2014-Aug-14 09:33N 55°16' E 012°38'7 6.6
2014-Aug-14 08:33N 55°23' E 012°39'7 6.6
2014-Aug-14 07:33N 55°29' E 012°41'7 7.0
2014-Aug-14 06:33N 55°36' E 012°42'7 7.4
2014-Aug-14 05:33N 55°43' E 012°41'7 7.1
2014-Aug-14 04:33N 55°50' E 012°39'7 7.2
2014-Aug-14 03:33N 55°58' E 012°37'7 7.1
2014-Aug-14 02:33N 56°05' E 012°36'8 7.5
2014-Aug-14 01:33N 56°09' E 012°25'7 7.4
2014-Aug-14 00:33N 56°13' E 012°14'81 6.6
2014-Aug-13 12:24N 56°59' E 010°13'7 8.0
2014-Aug-13 11:33N 57°03' E 010°04'4 4.4
2014-Aug-13 10:33N 57°03' E 009°56'5 4.5
2014-Aug-13 09:33N 57°04' E 009°47'1 0.0
2014-Aug-12 12:30N 57°03' E 009°48'5 5.1
2014-Aug-12 11:32N 57°03' E 009°57'0 0.0
2014-Aug-12 10:32N 57°03' E 009°57'0 0.0
2014-Aug-12 09:31N 57°03' E 009°57'0 0.0
2014-Aug-12 08:31N 57°03' E 009°57'0 0.0
2014-Aug-12 07:33N 57°03' E 009°57'0 0.0
2014-Aug-12 06:30N 57°03' E 009°57'3 3.2
2014-Aug-12 05:33N 57°04' E 010°03'50 8.0
2014-Aug-11 23:21N 56°28' E 011°06'  
Track history (hours):
 
Tides and Currents Weather Stations Pressure Air Temp Water Temp Dewpoint Dewpoint Depression Visibility Wind Speed Wind Dir Waves Ship Positions

Iberica Hav

Last reported at 2014-Aug-21 01:15 UTC. Time now 2014-Aug-22 04:00 UTC.
Position N 55°28' E 014°50'.

Length 88 m; draft 3.6 m.

Type: Cargo ship. MMSI: 311034400.

Date/timePositionNaut miles runAvg speedWind from/ knotsBaromVisibWave heightAir tempDewpointWater temp
2014-Aug-21 01:15N 55°28' E 014°50'9 7.9
2014-Aug-21 00:07N 55°23' E 014°37'4 7.9
2014-Aug-20 23:33N 55°19' E 014°32'89 8.1
2014-Aug-20 12:33N 54°33' E 012°20'9 9.3
2014-Aug-20 11:33N 54°25' E 012°11'8 7.1
2014-Aug-20 10:28N 54°19' E 012°04'7 7.6
2014-Aug-20 09:33N 54°12' E 012°05'3 3.0
2014-Aug-20 08:32N 54°09' E 012°06'0 0.0
2014-Aug-20 06:31N 54°09' E 012°06'0 0.0
2014-Aug-20 05:31N 54°09' E 012°06'0 0.0
2014-Aug-20 04:18N 54°09' E 012°06'0 0.0
2014-Aug-20 03:30N 54°09' E 012°06'0 0.0
2014-Aug-20 01:32N 54°09' E 012°06'0 0.0
2014-Aug-20 00:32N 54°09' E 012°06'0 0.0
2014-Aug-19 23:22N 54°09' E 012°06'0 0.0
2014-Aug-19 22:28N 54°09' E 012°06'0 0.0
2014-Aug-19 21:31N 54°09' E 012°06'0 0.0
2014-Aug-19 20:09N 54°09' E 012°06'0 0.0
2014-Aug-19 19:18N 54°09' E 012°06'0 0.0
2014-Aug-19 18:32N 54°09' E 012°06'0 0.0
2014-Aug-19 16:10N 54°09' E 012°06'0 0.0
2014-Aug-19 15:25N 54°09' E 012°06'0 0.0
2014-Aug-19 14:27N 54°09' E 012°06'1 0.7
2014-Aug-19 13:34N 54°10' E 012°06'8 8.0
2014-Aug-19 12:31N 54°18' E 012°02'8 8.7
2014-Aug-19 11:33N 54°25' E 012°09'19 7.6
2014-Aug-19 09:03N 54°38' E 012°33'6 8.3
2014-Aug-19 08:17N 54°40' E 012°43'6 8.0
2014-Aug-19 07:29N 54°41' E 012°54'7 7.7
2014-Aug-19 06:33N 54°42' E 013°06'7 7.3
2014-Aug-19 05:33N 54°43' E 013°19'8 8.5
2014-Aug-19 04:33N 54°41' E 013°33'9 9.4
2014-Aug-19 03:33N 54°35' E 013°45'9 9.3
2014-Aug-19 02:33N 54°27' E 013°53'10 9.2
2014-Aug-19 01:32N 54°19' E 014°01'12 9.1
2014-Aug-19 00:15N 54°08' E 014°10'7 9.6
2014-Aug-18 23:33N 54°02' E 014°13'8 8.3
2014-Aug-18 22:33N 53°54' E 014°15'8 7.5
2014-Aug-18 21:33N 53°47' E 014°22'10 9.6
2014-Aug-18 20:33N 53°40' E 014°32'10 9.1
2014-Aug-18 19:29N 53°31' E 014°38'  
2014-Aug-15 04:33N 53°27' E 014°36'10 8.0
2014-Aug-15 03:22N 53°36' E 014°35'7 9.0
2014-Aug-15 02:33N 53°42' E 014°28'9 9.0
2014-Aug-15 01:32N 53°50' E 014°19'7 7.0
2014-Aug-15 00:33N 53°56' E 014°16'5 4.6
2014-Aug-14 23:33N 54°01' E 014°14'9 6.9
2014-Aug-14 22:11N 54°10' E 014°10'4 6.9
2014-Aug-14 21:33N 54°13' E 014°05'7 6.9
2014-Aug-14 20:33N 54°19' E 013°59'7 6.8
2014-Aug-14 19:29N 54°25' E 013°52'6 7.0
2014-Aug-14 18:33N 54°31' E 013°47'7 6.9
2014-Aug-14 17:33N 54°37' E 013°41'7 7.0
2014-Aug-14 16:33N 54°43' E 013°35'42 6.7
2014-Aug-14 10:14N 55°12' E 012°41'5 6.8
2014-Aug-14 09:33N 55°16' E 012°38'7 6.6
2014-Aug-14 08:33N 55°23' E 012°39'7 6.6
2014-Aug-14 07:33N 55°29' E 012°41'7 7.0
2014-Aug-14 06:33N 55°36' E 012°42'7 7.4
2014-Aug-14 05:33N 55°43' E 012°41'7 7.1
2014-Aug-14 04:33N 55°50' E 012°39'7 7.2
2014-Aug-14 03:33N 55°58' E 012°37'7 7.1
2014-Aug-14 02:33N 56°05' E 012°36'8 7.5
2014-Aug-14 01:33N 56°09' E 012°25'7 7.4
2014-Aug-14 00:33N 56°13' E 012°14'81 6.6
2014-Aug-13 12:24N 56°59' E 010°13'7 8.0
2014-Aug-13 11:33N 57°03' E 010°04'4 4.4
2014-Aug-13 10:33N 57°03' E 009°56'5 4.5
2014-Aug-13 09:33N 57°04' E 009°47'1 0.0
2014-Aug-12 12:30N 57°03' E 009°48'5 5.1
2014-Aug-12 11:32N 57°03' E 009°57'0 0.0
2014-Aug-12 10:32N 57°03' E 009°57'0 0.0
2014-Aug-12 09:31N 57°03' E 009°57'0 0.0
2014-Aug-12 08:31N 57°03' E 009°57'0 0.0
2014-Aug-12 07:33N 57°03' E 009°57'0 0.0
2014-Aug-12 06:30N 57°03' E 009°57'3 3.2
2014-Aug-12 05:33N 57°04' E 010°03'50 8.0
2014-Aug-11 23:21N 56°28' E 011°06'  

Dump ship's entire track history